Time;durP1;ratioP1;P1;durP2;ratioP2;P2;SDS_P1;SDS_P2;PMS_P1;PMS_P2;Temp;Humidity;BMP_temperature;BMP_pressure;BME280_temperature;BME280_humidity;BME280_pressure;Samples;Min_cycle;Max_cycle;Signal;HPM_P1;HPM_P2
2022/06/12 00:02:31;;;;;;;6.22;4.20;;;;;;;;;;5063476;28;20041;-80
2022/06/12 00:05:19;;;;;;;6.32;4.65;;;;;;;;;;5056337;28;20045;-81
2022/06/12 00:08:06;;;;;;;7.68;4.63;;;;;;;;;;5055634;28;20041;-81
2022/06/12 00:10:55;;;;;;;7.65;4.60;;;;;;;;;;5056286;28;20037;-81
2022/06/12 00:13:44;;;;;;;10.82;4.65;;;;;;;;;;5056238;28;20045;-81
2022/06/12 00:16:32;;;;;;;6.88;4.38;;;;;;;;;;5063247;28;20041;-80
2022/06/12 00:19:17;;;;;;;7.80;4.55;;;;;;;;;;5034399;28;20493;-80
2022/06/12 00:22:03;;;;;;;7.45;4.50;;;;;;;;;;5056226;28;20049;-80
2022/06/12 00:24:49;;;;;;;8.55;4.63;;;;;;;;;;5041704;28;20045;-81
2022/06/12 00:27:36;;;;;;;9.10;5.30;;;;;;;;;;5062523;28;20482;-82
2022/06/12 00:30:28;;;;;;;6.30;5.10;;;;;;;;;;5056351;28;20037;-83
2022/06/12 00:33:13;;;;;;;6.78;4.88;;;;;;;;;;5063139;28;20470;-82
2022/06/12 00:36:02;;;;;;;5.50;4.57;;;;;;;;;;5062838;28;20044;-80
2022/06/12 00:38:48;;;;;;;6.75;4.75;;;;;;;;;;5039755;28;20521;-80
2022/06/12 00:41:40;;;;;;;8.95;3.85;;;;;;;;;;5060666;28;20044;-81
2022/06/12 00:44:44;;;;;;;4.45;4.00;;;;;;;;;;5054031;28;20048;-80
2022/06/12 00:47:30;;;;;;;5.03;4.00;;;;;;;;;;5045621;28;20056;-79
2022/06/12 00:50:28;;;;;;;4.07;3.50;;;;;;;;;;5060839;28;20474;-82
2022/06/12 00:53:21;;;;;;;11.10;4.53;;;;;;;;;;5055379;28;20049;-81
2022/06/12 00:56:14;;;;;;;8.00;4.20;;;;;;;;;;5055685;28;20041;-79
2022/06/12 00:59:03;;;;;;;6.43;3.97;;;;;;;;;;5056060;28;20045;-79
2022/06/12 01:01:52;;;;;;;7.15;4.00;;;;;;;;;;5062460;28;20049;-81
2022/06/12 01:07:48;;;;;;;7.72;4.32;;;;;;;;;;5061988;28;20036;-83
2022/06/12 01:10:38;;;;;;;4.60;3.83;;;;;;;;;;5055237;28;20049;-80
2022/06/12 01:13:35;;;;;;;5.22;3.85;;;;;;;;;;5055861;28;20045;-82
2022/06/12 01:16:22;;;;;;;6.53;4.60;;;;;;;;;;5027811;28;20050;-82
2022/06/12 01:19:11;;;;;;;9.45;4.63;;;;;;;;;;5029672;28;20041;-82
2022/06/12 01:22:27;;;;;;;6.43;4.60;;;;;;;;;;5035410;28;20058;-80
2022/06/12 01:25:45;;;;;;;11.77;5.25;;;;;;;;;;5035014;28;20054;-81
2022/06/12 01:28:54;;;;;;;10.50;5.13;;;;;;;;;;5035040;28;20045;-82
2022/06/12 01:31:48;;;;;;;8.10;5.65;;;;;;;;;;5034978;28;20518;-82
2022/06/12 01:34:46;;;;;;;202.02;112.80;;;;;;;;;;5041582;28;20486;-80
2022/06/12 01:38:03;;;;;;;217.05;101.70;;;;;;;;;;5027017;28;20049;-82
2022/06/12 01:41:08;;;;;;;486.50;328.50;;;;;;;;;;5034905;28;20041;-82
2022/06/12 01:44:02;;;;;;;313.17;222.53;;;;;;;;;;5042043;28;20037;-82
2022/06/12 01:46:56;;;;;;;61.65;43.35;;;;;;;;;;5034677;28;20037;-82
2022/06/12 01:50:08;;;;;;;116.22;85.75;;;;;;;;;;5027148;28;20049;-84
2022/06/12 01:53:08;;;;;;;16.13;10.27;;;;;;;;;;5037162;28;20360;-82
2022/06/12 01:56:03;;;;;;;7.93;7.07;;;;;;;;;;5036457;28;20049;-80
2022/06/12 01:58:53;;;;;;;10.10;7.05;;;;;;;;;;5035478;28;20050;-80
2022/06/12 02:01:43;;;;;;;11.18;6.80;;;;;;;;;;5043018;28;20037;-82
2022/06/12 02:04:35;;;;;;;11.20;6.97;;;;;;;;;;5043622;28;20482;-82
2022/06/12 02:07:33;;;;;;;10.07;7.20;;;;;;;;;;5035442;28;20046;-80
2022/06/12 02:10:27;;;;;;;8.50;6.22;;;;;;;;;;5035905;28;20490;-82
2022/06/12 02:13:38;;;;;;;10.05;6.70;;;;;;;;;;5041132;28;20045;-83
2022/06/12 02:16:37;;;;;;;10.52;7.00;;;;;;;;;;5052683;28;20406;-81
2022/06/12 02:19:33;;;;;;;13.02;6.95;;;;;;;;;;5054420;28;20045;-80
2022/06/12 02:22:26;;;;;;;8.93;6.80;;;;;;;;;;5046346;28;20049;-83
2022/06/12 02:25:21;;;;;;;12.90;6.80;;;;;;;;;;5054478;28;20381;-82
2022/06/12 02:28:11;;;;;;;9.30;7.10;;;;;;;;;;5053942;28;20044;-83
2022/06/12 02:31:01;;;;;;;8.93;7.28;;;;;;;;;;5053841;28;20049;-81
2022/06/12 02:33:51;;;;;;;14.40;7.47;;;;;;;;;;5054462;28;20116;-81
2022/06/12 02:36:41;;;;;;;10.30;6.78;;;;;;;;;;5039827;28;20037;-83
2022/06/12 02:39:32;;;;;;;10.75;7.43;;;;;;;;;;5054360;28;20485;-83
2022/06/12 02:42:22;;;;;;;8.35;7.25;;;;;;;;;;5053962;28;20045;-83
2022/06/12 02:45:25;;;;;;;10.50;8.15;;;;;;;;;;5053835;28;20490;-82
2022/06/12 02:48:11;;;;;;;12.25;8.20;;;;;;;;;;5053937;28;20406;-83
2022/06/12 02:51:08;;;;;;;11.52;8.75;;;;;;;;;;5053738;28;20494;-82
2022/06/12 02:54:23;;;;;;;10.05;8.95;;;;;;;;;;5053893;28;20057;-80
2022/06/12 02:57:24;;;;;;;11.23;8.95;;;;;;;;;;5060659;28;20045;-82
2022/06/12 03:00:17;;;;;;;9.88;8.88;;;;;;;;;;5053676;28;20037;-81
2022/06/12 03:03:15;;;;;;;10.90;9.65;;;;;;;;;;5054088;28;20053;-83
2022/06/12 03:06:01;;;;;;;11.75;10.45;;;;;;;;;;5053829;28;20037;-80
2022/06/12 03:08:49;;;;;;;13.05;10.93;;;;;;;;;;5060213;28;20045;-80
2022/06/12 03:11:40;;;;;;;16.58;11.23;;;;;;;;;;5053628;28;20490;-82
2022/06/12 03:14:26;;;;;;;14.35;12.95;;;;;;;;;;5058512;28;20534;-83
2022/06/12 03:17:11;;;;;;;13.18;11.82;;;;;;;;;;5059994;28;20053;-82
2022/06/12 03:19:57;;;;;;;16.83;11.73;;;;;;;;;;5060347;28;20049;-83
2022/06/12 03:23:21;;;;;;;18.45;11.80;;;;;;;;;;5060213;28;20045;-80
2022/06/12 03:26:12;;;;;;;13.23;10.00;;;;;;;;;;5038482;28;20045;-82
2022/06/12 03:29:17;;;;;;;13.30;10.18;;;;;;;;;;5053707;28;20037;-82
2022/06/12 03:32:07;;;;;;;15.38;11.43;;;;;;;;;;5053707;28;20048;-82
2022/06/12 03:35:08;;;;;;;16.08;10.32;;;;;;;;;;5053445;28;20041;-80
2022/06/12 03:38:18;;;;;;;11.23;10.13;;;;;;;;;;5059976;28;20478;-82
2022/06/12 03:41:14;;;;;;;12.75;8.77;;;;;;;;;;5053222;28;20049;-81
2022/06/12 03:44:14;;;;;;;13.13;9.93;;;;;;;;;;5055791;28;20048;-81
2022/06/12 03:47:37;;;;;;;10.18;9.13;;;;;;;;;;5063403;28;20489;-81
2022/06/12 03:50:52;;;;;;;15.38;10.60;;;;;;;;;;5064012;28;20045;-79
2022/06/12 03:54:08;;;;;;;9.27;7.83;;;;;;;;;;5057199;28;20048;-79
2022/06/12 04:00:21;;;;;;;10.80;9.02;;;;;;;;;;5057137;28;20030;-81
2022/06/12 04:03:14;;;;;;;13.63;10.93;;;;;;;;;;5063294;28;20382;-81
2022/06/12 04:06:03;;;;;;;16.67;10.82;;;;;;;;;;5056844;28;20482;-81
2022/06/12 04:08:53;;;;;;;13.68;10.38;;;;;;;;;;5056460;28;20045;-81
2022/06/12 04:11:41;;;;;;;15.43;9.45;;;;;;;;;;5056797;28;20048;-82
2022/06/12 04:14:39;;;;;;;22.50;11.18;;;;;;;;;;5062644;28;20041;-82
2022/06/12 04:17:24;;;;;;;11.75;10.23;;;;;;;;;;5063037;28;20045;-79
2022/06/12 04:20:18;;;;;;;16.00;11.90;;;;;;;;;;5056035;28;20041;-80
2022/06/12 04:23:10;;;;;;;13.80;10.23;;;;;;;;;;5056464;28;20037;-83
2022/06/12 04:26:00;;;;;;;12.85;9.68;;;;;;;;;;5063262;28;20041;-82
2022/06/12 04:28:53;;;;;;;11.57;10.27;;;;;;;;;;5056352;28;20044;-80
2022/06/12 04:31:41;;;;;;;10.63;8.25;;;;;;;;;;5062782;28;20041;-80
2022/06/12 04:34:39;;;;;;;12.73;7.93;;;;;;;;;;5056065;28;20049;-82
2022/06/12 04:37:28;;;;;;;11.82;10.57;;;;;;;;;;5055938;28;20052;-83
2022/06/12 04:40:23;;;;;;;10.95;9.38;;;;;;;;;;5062852;28;20389;-80
2022/06/12 04:43:09;;;;;;;9.13;8.00;;;;;;;;;;5055883;28;20033;-81
2022/06/12 04:45:55;;;;;;;8.93;6.82;;;;;;;;;;5056096;28;20037;-78
2022/06/12 04:48:42;;;;;;;9.68;8.63;;;;;;;;;;5062629;28;20041;-79
2022/06/12 04:51:29;;;;;;;12.77;7.38;;;;;;;;;;5055986;28;20049;-80
2022/06/12 04:54:16;;;;;;;10.10;8.25;;;;;;;;;;5055527;28;20486;-81
2022/06/12 04:57:03;;;;;;;10.52;8.35;;;;;;;;;;5055954;28;20413;-79
2022/06/12 04:59:48;;;;;;;12.95;7.85;;;;;;;;;;5055969;28;20037;-79
2022/06/12 05:02:34;;;;;;;11.35;8.93;;;;;;;;;;5056343;28;20049;-79
2022/06/12 05:05:19;;;;;;;9.75;8.57;;;;;;;;;;5056016;28;20037;-80
2022/06/12 05:08:05;;;;;;;19.73;11.98;;;;;;;;;;5055502;28;20045;-81
2022/06/12 05:10:50;;;;;;;14.15;9.30;;;;;;;;;;5062606;28;20040;-79
2022/06/12 05:13:36;;;;;;;9.70;8.70;;;;;;;;;;5055925;28;20045;-79
2022/06/12 05:16:29;;;;;;;10.38;8.30;;;;;;;;;;5055599;28;20045;-80
2022/06/12 05:19:20;;;;;;;11.75;8.90;;;;;;;;;;5055448;28;20033;-81
2022/06/12 05:22:07;;;;;;;12.57;7.88;;;;;;;;;;5062307;28;20045;-80
2022/06/12 05:24:52;;;;;;;11.88;8.95;;;;;;;;;;5061838;28;20044;-80
2022/06/12 05:27:38;;;;;;;10.93;9.55;;;;;;;;;;5055047;28;20041;-79
2022/06/12 05:30:26;;;;;;;9.05;8.15;;;;;;;;;;5054898;28;20037;-80
2022/06/12 05:33:12;;;;;;;11.50;8.00;;;;;;;;;;5054489;28;20045;-79
2022/06/12 05:35:58;;;;;;;10.65;7.50;;;;;;;;;;5061284;28;20045;-80
2022/06/12 05:38:45;;;;;;;15.05;9.00;;;;;;;;;;5054788;28;20053;-80
2022/06/12 05:41:29;;;;;;;12.60;8.93;;;;;;;;;;5055107;28;20045;-79
2022/06/12 05:44:15;;;;;;;10.40;9.13;;;;;;;;;;5054181;28;20394;-81
2022/06/12 05:47:01;;;;;;;10.68;8.57;;;;;;;;;;5054316;28;20049;-80
2022/06/12 05:49:47;;;;;;;9.35;8.38;;;;;;;;;;5060949;28;20045;-81
2022/06/12 05:52:33;;;;;;;10.65;9.55;;;;;;;;;;5054406;28;20049;-81
2022/06/12 05:55:19;;;;;;;13.48;9.40;;;;;;;;;;5060951;28;20049;-81
2022/06/12 05:58:04;;;;;;;12.02;9.43;;;;;;;;;;5054435;28;20494;-79
2022/06/12 06:00:53;;;;;;;11.80;9.13;;;;;;;;;;5054351;28;20049;-80
2022/06/12 06:03:39;;;;;;;16.55;8.88;;;;;;;;;;5054869;28;20045;-81
2022/06/12 06:06:31;;;;;;;14.00;9.55;;;;;;;;;;5052946;28;20494;-79
2022/06/12 06:09:18;;;;;;;14.32;10.18;;;;;;;;;;5060485;28;20040;-79
2022/06/12 06:12:03;;;;;;;15.27;10.27;;;;;;;;;;5054134;28;20041;-79
2022/06/12 06:14:49;;;;;;;10.27;8.88;;;;;;;;;;5053915;28;20041;-81
2022/06/12 06:17:35;;;;;;;11.20;10.05;;;;;;;;;;5053945;28;20044;-79
2022/06/12 06:20:25;;;;;;;10.70;9.70;;;;;;;;;;5054255;28;20052;-81
2022/06/12 06:23:11;;;;;;;11.85;10.32;;;;;;;;;;5060763;28;20053;-79
2022/06/12 06:25:56;;;;;;;11.23;10.13;;;;;;;;;;5054296;28;20049;-80
2022/06/12 06:28:42;;;;;;;13.90;10.27;;;;;;;;;;5053962;28;20052;-79
2022/06/12 06:31:28;;;;;;;11.32;10.05;;;;;;;;;;5060896;28;20489;-80
2022/06/12 06:34:15;;;;;;;12.07;10.80;;;;;;;;;;5054167;28;20393;-80
2022/06/12 06:37:00;;;;;;;12.15;10.43;;;;;;;;;;5053810;28;20474;-81
2022/06/12 06:39:46;;;;;;;11.00;9.80;;;;;;;;;;5060473;28;20045;-80
2022/06/12 06:42:31;;;;;;;16.35;9.45;;;;;;;;;;5053782;28;20053;-79
2022/06/12 06:48:23;;;;;;;13.25;8.68;;;;;;;;;;5053665;28;20402;-79
2022/06/12 06:51:09;;;;;;;14.80;9.10;;;;;;;;;;5053183;28;20041;-80
2022/06/12 06:53:54;;;;;;;12.50;8.63;;;;;;;;;;5059917;28;20048;-78
2022/06/12 06:56:39;;;;;;;11.70;8.95;;;;;;;;;;5060188;28;20044;-79
2022/06/12 06:59:25;;;;;;;10.35;8.55;;;;;;;;;;5047892;23;20041;-82
2022/06/12 07:02:11;;;;;;;25.35;20.00;;;;;;;;;;5040137;28;20049;-80
2022/06/12 07:04:58;;;;;;;179.52;152.30;;;;;;;;;;5032375;28;20037;-81
2022/06/12 07:07:46;;;;;;;152.23;118.57;;;;;;;;;;5060113;28;20049;-79
2022/06/12 07:10:34;;;;;;;27.13;21.95;;;;;;;;;;5053228;28;20374;-80
2022/06/12 07:13:19;;;;;;;72.00;52.38;;;;;;;;;;5053496;28;20037;-81
2022/06/12 07:16:05;;;;;;;32.85;25.88;;;;;;;;;;5060303;28;20049;-80
2022/06/12 07:18:51;;;;;;;15.80;10.88;;;;;;;;;;5055838;28;20049;-78
2022/06/12 07:21:37;;;;;;;12.10;9.63;;;;;;;;;;5038161;28;20045;-78
2022/06/12 07:24:23;;;;;;;11.63;8.98;;;;;;;;;;5064148;28;20049;-79
2022/06/12 07:27:08;;;;;;;9.35;7.88;;;;;;;;;;5058270;28;20049;-79
2022/06/12 07:29:55;;;;;;;11.73;7.80;;;;;;;;;;5064382;28;20045;-79
2022/06/12 07:32:40;;;;;;;8.02;6.90;;;;;;;;;;5064343;28;20044;-81
2022/06/12 07:35:25;;;;;;;7.95;6.85;;;;;;;;;;5063479;28;20036;-78
2022/06/12 07:38:14;;;;;;;11.85;8.75;;;;;;;;;;5064357;28;20053;-79
2022/06/12 07:41:03;;;;;;;10.93;7.15;;;;;;;;;;5057263;28;20413;-80
2022/06/12 07:43:49;;;;;;;8.15;5.85;;;;;;;;;;5056749;28;20049;-78
2022/06/12 07:46:35;;;;;;;10.98;4.95;;;;;;;;;;5063695;28;20045;-81
2022/06/12 07:49:24;;;;;;;8.70;5.10;;;;;;;;;;5056631;28;20045;-76
2022/06/12 07:52:10;;;;;;;8.18;4.18;;;;;;;;;;5063422;28;20041;-76
2022/06/12 07:54:56;;;;;;;7.18;4.20;;;;;;;;;;5055889;28;20060;-75
2022/06/12 07:57:43;;;;;;;5.88;4.65;;;;;;;;;;5056634;28;20053;-75
2022/06/12 08:00:29;;;;;;;5.72;2.92;;;;;;;;;;5058492;28;20045;-79
2022/06/12 08:03:15;;;;;;;4.78;3.15;;;;;;;;;;5055879;28;20048;-74
2022/06/12 08:06:00;;;;;;;5.35;3.78;;;;;;;;;;5049491;28;20045;-74
2022/06/12 08:08:49;;;;;;;8.23;4.28;;;;;;;;;;5057141;28;20069;-83
2022/06/12 08:11:32;;;;;;;7.10;3.80;;;;;;;;;;5017529;23;20414;-81
2022/06/12 08:14:20;;;;;;;6.80;3.78;;;;;;;;;;5015627;28;20050;-78
2022/06/12 08:17:06;;;;;;;10.77;5.55;;;;;;;;;;5009966;28;20050;-77
2022/06/12 08:23:26;;;;;;;11.95;6.15;;;;;;;;;;5023148;28;20046;-77
2022/06/12 08:26:14;;;;;;;20.90;10.35;;;;;;;;;;5022936;28;20487;-77
2022/06/12 08:29:09;;;;;;;9.40;6.82;;;;;;;;;;5016529;28;20049;-77
2022/06/12 08:32:02;;;;;;;9.13;5.43;;;;;;;;;;5023095;28;20415;-77
2022/06/12 08:35:01;;;;;;;7.00;4.85;;;;;;;;;;5016536;28;20399;-80
2022/06/12 08:37:47;;;;;;;6.63;5.47;;;;;;;;;;5016114;28;20050;-78
2022/06/12 08:40:55;;;;;;;7.70;6.10;;;;;;;;;;5023412;28;20050;-79
2022/06/12 08:44:04;;;;;;;11.85;8.25;;;;;;;;;;5022687;28;20046;-79
2022/06/12 08:47:04;;;;;;;7.15;5.20;;;;;;;;;;5007708;28;20054;-77
2022/06/12 08:50:31;;;;;;;5.45;4.43;;;;;;;;;;5022487;28;20406;-78
2022/06/12 08:53:50;;;;;;;7.07;4.78;;;;;;;;;;5004832;28;20053;-79
2022/06/12 08:56:50;;;;;;;5.85;3.70;;;;;;;;;;5015723;28;20046;-79
2022/06/12 08:59:42;;;;;;;7.82;3.75;;;;;;;;;;5016607;28;20042;-79
2022/06/12 09:02:32;;;;;;;6.28;5.40;;;;;;;;;;5015361;28;20050;-79
2022/06/12 09:05:31;;;;;;;8.02;4.97;;;;;;;;;;5015302;28;20053;-79
2022/06/12 09:08:22;;;;;;;11.15;5.43;;;;;;;;;;5006905;28;20038;-78
2022/06/12 09:11:17;;;;;;;12.23;8.45;;;;;;;;;;5015264;28;20682;-77
2022/06/12 09:14:54;;;;;;;7.53;6.03;;;;;;;;;;5016020;28;20395;-78
2022/06/12 09:18:16;;;;;;;4.18;3.78;;;;;;;;;;4982267;28;20037;-79
2022/06/12 09:21:11;;;;;;;8.82;6.68;;;;;;;;;;5015482;28;20483;-79
2022/06/12 09:24:17;;;;;;;12.40;4.60;;;;;;;;;;5015563;28;20057;-78
2022/06/12 09:27:19;;;;;;;6.70;4.03;;;;;;;;;;5021755;28;20046;-79
2022/06/12 09:30:16;;;;;;;4.57;4.05;;;;;;;;;;5036321;22;20057;-81
2022/06/12 09:33:11;;;;;;;5.25;4.60;;;;;;;;;;5054972;28;20053;-77
2022/06/12 09:35:59;;;;;;;5.70;4.43;;;;;;;;;;5061554;28;20390;-77
2022/06/12 09:39:15;;;;;;;6.30;5.45;;;;;;;;;;5054816;28;20037;-76
2022/06/12 09:42:23;;;;;;;6.10;4.38;;;;;;;;;;5054500;28;20041;-78
2022/06/12 09:45:44;;;;;;;6.10;3.35;;;;;;;;;;5061273;28;20048;-78
2022/06/12 09:48:56;;;;;;;5.13;3.85;;;;;;;;;;5050138;28;20398;-79
2022/06/12 09:51:53;;;;;;;6.60;3.60;;;;;;;;;;5061198;28;20040;-79
2022/06/12 09:54:54;;;;;;;6.50;3.88;;;;;;;;;;5060589;28;20040;-81
2022/06/12 09:57:51;;;;;;;3.42;3.10;;;;;;;;;;5053754;28;20045;-82
2022/06/12 10:00:40;;;;;;;4.38;3.58;;;;;;;;;;5054378;28;20056;-77
2022/06/12 10:03:40;;;;;;;5.20;3.45;;;;;;;;;;5053479;28;20045;-77
2022/06/12 10:06:46;;;;;;;5.88;4.13;;;;;;;;;;5053999;28;20045;-79
2022/06/12 10:09:49;;;;;;;9.13;4.20;;;;;;;;;;5060283;28;20164;-79
2022/06/12 10:12:39;;;;;;;11.82;4.55;;;;;;;;;;5060727;28;20045;-77
2022/06/12 10:15:34;;;;;;;7.43;3.88;;;;;;;;;;5054153;28;20041;-77
2022/06/12 10:18:28;;;;;;;4.10;2.88;;;;;;;;;;5054045;28;20041;-79
2022/06/12 10:21:21;;;;;;;5.28;3.70;;;;;;;;;;5060786;28;20036;-78
2022/06/12 10:24:07;;;;;;;7.75;4.30;;;;;;;;;;5053689;28;20033;-79
2022/06/12 10:27:09;;;;;;;5.70;3.00;;;;;;;;;;5060647;28;20505;-78
2022/06/12 10:30:02;;;;;;;4.72;3.50;;;;;;;;;;5058241;28;20049;-78
2022/06/12 10:32:52;;;;;;;6.28;4.03;;;;;;;;;;5053880;28;20044;-78
2022/06/12 10:35:47;;;;;;;5.28;3.70;;;;;;;;;;5053659;28;20045;-78
2022/06/12 10:38:36;;;;;;;6.35;3.20;;;;;;;;;;5060497;28;20505;-78
2022/06/12 10:41:28;;;;;;;7.25;3.58;;;;;;;;;;5060503;28;20048;-75
2022/06/12 10:44:25;;;;;;;4.75;4.13;;;;;;;;;;5060342;28;20045;-75
2022/06/12 10:47:28;;;;;;;7.05;3.83;;;;;;;;;;5053819;28;20061;-76
2022/06/12 10:50:24;;;;;;;7.65;3.60;;;;;;;;;;5053514;28;20053;-76
2022/06/12 10:53:11;;;;;;;10.10;3.47;;;;;;;;;;5059358;28;20041;-76
2022/06/12 10:56:03;;;;;;;6.10;3.70;;;;;;;;;;5060202;28;20041;-75
2022/06/12 10:58:52;;;;;;;4.53;3.70;;;;;;;;;;5053479;28;20040;-76
2022/06/12 11:01:44;;;;;;;7.05;4.50;;;;;;;;;;5060448;28;20044;-75
2022/06/12 11:04:48;;;;;;;6.95;3.53;;;;;;;;;;5059959;28;20041;-77
2022/06/12 11:07:57;;;;;;;7.80;4.43;;;;;;;;;;5059918;28;20040;-75
2022/06/12 11:11:08;;;;;;;6.82;4.20;;;;;;;;;;5053065;28;20049;-75
2022/06/12 11:14:13;;;;;;;6.05;3.17;;;;;;;;;;5049622;28;20049;-76
2022/06/12 11:17:23;;;;;;;3.83;3.25;;;;;;;;;;5052985;28;20049;-74
2022/06/12 11:20:46;;;;;;;9.68;4.75;;;;;;;;;;5052805;28;20041;-75
2022/06/12 11:23:41;;;;;;;6.18;4.95;;;;;;;;;;5053380;28;20048;-76
2022/06/12 11:26:52;;;;;;;4.82;4.07;;;;;;;;;;5059638;28;20467;-77
2022/06/12 11:30:10;;;;;;;7.13;4.40;;;;;;;;;;5053190;28;20387;-76
2022/06/12 11:33:13;;;;;;;6.43;3.83;;;;;;;;;;5053099;28;20045;-77
2022/06/12 11:36:05;;;;;;;5.57;4.45;;;;;;;;;;5053412;28;20053;-82
2022/06/12 11:39:09;;;;;;;5.28;3.88;;;;;;;;;;5059510;28;20052;-81
2022/06/12 11:42:17;;;;;;;7.47;4.80;;;;;;;;;;5038599;28;20049;-80
2022/06/12 11:45:31;;;;;;;6.55;4.53;;;;;;;;;;5053704;28;20049;-81
2022/06/12 11:49:12;;;;;;;6.75;4.82;;;;;;;;;;4979332;28;20041;-88
2022/06/12 11:52:03;;;;;;;8.45;4.82;;;;;;;;;;4960480;29;20054;-82
2022/06/12 11:55:29;;;;;;;7.45;4.45;;;;;;;;;;5060525;28;20044;-83
2022/06/12 11:58:18;;;;;;;8.60;4.63;;;;;;;;;;5053824;28;20040;-82
2022/06/12 12:01:25;;;;;;;5.82;4.97;;;;;;;;;;5053580;28;20045;-83
2022/06/12 12:04:25;;;;;;;6.60;5.28;;;;;;;;;;5032750;28;20116;-84
2022/06/12 12:07:35;;;;;;;7.15;4.63;;;;;;;;;;5051385;28;20045;-85
2022/06/12 12:10:46;;;;;;;9.73;5.18;;;;;;;;;;5056763;28;20052;-85
2022/06/12 12:13:42;;;;;;;9.00;5.15;;;;;;;;;;5041383;28;20044;-83
2022/06/12 12:16:35;;;;;;;11.40;4.55;;;;;;;;;;5056914;28;20045;-85
2022/06/12 12:19:33;;;;;;;8.83;6.00;;;;;;;;;;5057041;28;20052;-78
2022/06/12 12:22:35;;;;;;;6.30;5.70;;;;;;;;;;5056213;28;20038;-78
2022/06/12 12:25:45;;;;;;;12.02;5.53;;;;;;;;;;5056462;28;20045;-79
2022/06/12 12:28:50;;;;;;;10.77;5.38;;;;;;;;;;5056383;28;20057;-81
2022/06/12 12:31:37;;;;;;;7.95;5.57;;;;;;;;;;5021574;28;20045;-80
2022/06/12 12:34:24;;;;;;;5.47;4.93;;;;;;;;;;5042739;28;20037;-81
2022/06/12 12:43:54;;;;;;;5.53;4.50;;;;;;;;;;5042567;28;20037;-81
2022/06/12 12:46:44;;;;;;;5.28;4.65;;;;;;;;;;5035973;28;20037;-78
2022/06/12 12:49:35;;;;;;;5.78;4.15;;;;;;;;;;5035781;28;20386;-78
2022/06/12 12:52:21;;;;;;;6.75;4.90;;;;;;;;;;5042481;28;20045;-79
2022/06/12 12:55:24;;;;;;;6.93;4.75;;;;;;;;;;5036265;28;20045;-78
2022/06/12 12:58:21;;;;;;;7.78;4.75;;;;;;;;;;5037320;28;20045;-80
2022/06/12 13:01:21;;;;;;;8.35;4.57;;;;;;;;;;5042850;28;20490;-82
2022/06/12 13:04:17;;;;;;;6.80;4.80;;;;;;;;;;5035673;28;20491;-80
2022/06/12 13:07:21;;;;;;;6.65;4.82;;;;;;;;;;5035719;28;20045;-80
2022/06/12 13:10:21;;;;;;;6.03;4.57;;;;;;;;;;5041909;28;20495;-79
2022/06/12 13:13:25;;;;;;;7.05;4.72;;;;;;;;;;5042518;28;20053;-81
2022/06/12 13:16:43;;;;;;;6.07;4.57;;;;;;;;;;5042295;28;20394;-82
2022/06/12 13:20:06;;;;;;;7.88;4.10;;;;;;;;;;5042012;28;20290;-81
2022/06/12 13:23:14;;;;;;;6.65;4.20;;;;;;;;;;4955739;29;20055;-79
2022/06/12 13:26:07;;;;;;;5.40;4.10;;;;;;;;;;5035167;28;20402;-79
2022/06/12 13:28:57;;;;;;;8.20;4.22;;;;;;;;;;5041241;28;20057;-78
2022/06/12 13:31:57;;;;;;;8.20;4.03;;;;;;;;;;5041325;28;20038;-81
2022/06/12 13:34:42;;;;;;;6.18;4.15;;;;;;;;;;5041400;28;20045;-79
2022/06/12 13:37:30;;;;;;;3.15;2.75;;;;;;;;;;5035083;28;20049;-78
2022/06/12 13:40:30;;;;;;;8.43;3.38;;;;;;;;;;5034420;28;20049;-78
2022/06/12 13:43:28;;;;;;;6.53;4.40;;;;;;;;;;5041145;28;20053;-85
2022/06/12 13:46:22;;;;;;;5.38;4.00;;;;;;;;;;5036696;28;20046;-85
2022/06/12 13:49:31;;;;;;;8.70;4.28;;;;;;;;;;5027075;28;20045;-84
2022/06/12 13:52:35;;;;;;;11.25;4.20;;;;;;;;;;5033241;28;20049;-83
2022/06/12 13:55:47;;;;;;;8.30;4.45;;;;;;;;;;5034392;28;20042;-84
2022/06/12 13:58:42;;;;;;;5.57;3.83;;;;;;;;;;5041232;28;20050;-80
2022/06/12 14:01:29;;;;;;;;;;;;;;;;;;5035183;28;20398;-83
2022/06/12 14:04:32;;;;;;;5.03;3.40;;;;;;;;;;5040361;28;20263;-85
2022/06/12 14:07:18;;;;;;;7.70;4.05;;;;;;;;;;5035755;28;20053;-85
2022/06/12 14:10:16;;;;;;;9.27;4.07;;;;;;;;;;5036616;28;20041;-82
2022/06/12 14:13:13;;;;;;;7.20;4.20;;;;;;;;;;5035224;28;20057;-87
2022/06/12 14:16:08;;;;;;;6.05;4.25;;;;;;;;;;5043780;28;20037;-87
2022/06/12 14:19:06;;;;;;;6.10;4.22;;;;;;;;;;5044753;28;20045;-87
2022/06/12 14:22:01;;;;;;;5.30;3.88;;;;;;;;;;5038419;28;20045;-86
2022/06/12 14:25:14;;;;;;;7.75;4.15;;;;;;;;;;5037878;28;20112;-84
2022/06/12 14:28:06;;;;;;;8.57;4.75;;;;;;;;;;5040178;28;20045;-82
2022/06/12 14:31:09;;;;;;;9.82;5.45;;;;;;;;;;5049629;28;20041;-78
2022/06/12 14:34:06;;;;;;;13.20;7.00;;;;;;;;;;5054274;28;20041;-81
2022/06/12 14:36:56;;;;;;;13.75;8.63;;;;;;;;;;5053914;28;20482;-79
2022/06/12 14:39:46;;;;;;;18.60;10.15;;;;;;;;;;5035711;23;20061;-77
2022/06/12 14:42:33;;;;;;;13.65;8.50;;;;;;;;;;5057830;28;20049;-80
2022/06/12 14:45:20;;;;;;;13.00;8.35;;;;;;;;;;5057901;28;20402;-79
2022/06/12 14:48:12;;;;;;;13.20;10.57;;;;;;;;;;5052551;28;20482;-80
2022/06/12 14:50:58;;;;;;;16.25;10.38;;;;;;;;;;5059916;28;20037;-79
2022/06/12 14:53:44;;;;;;;16.48;10.50;;;;;;;;;;5060357;28;20041;-79
2022/06/12 14:56:31;;;;;;;11.23;9.80;;;;;;;;;;5059808;28;20045;-79
2022/06/12 14:59:23;;;;;;;11.25;9.63;;;;;;;;;;5059945;28;20037;-79
2022/06/12 15:02:18;;;;;;;12.82;9.93;;;;;;;;;;5060348;28;20049;-79
2022/06/12 15:05:27;;;;;;;15.18;10.25;;;;;;;;;;5060283;28;20053;-80
2022/06/12 15:08:13;;;;;;;13.90;9.70;;;;;;;;;;5052984;28;20044;-79
2022/06/12 15:11:00;;;;;;;9.95;8.52;;;;;;;;;;5053457;28;20052;-80
2022/06/12 15:13:48;;;;;;;25.30;15.65;;;;;;;;;;5060411;28;20494;-79
2022/06/12 15:16:35;;;;;;;9.63;7.60;;;;;;;;;;5053883;28;20041;-79
2022/06/12 15:19:20;;;;;;;46.90;32.30;;;;;;;;;;5059815;28;20041;-79
2022/06/12 15:22:06;;;;;;;44.13;31.35;;;;;;;;;;5059231;28;20057;-80
2022/06/12 15:24:52;;;;;;;8.73;7.82;;;;;;;;;;5060214;28;20053;-80
2022/06/12 15:30:41;;;;;;;10.40;7.95;;;;;;;;;;5052968;28;20486;-80
2022/06/12 15:33:28;;;;;;;8.93;7.38;;;;;;;;;;5052063;28;20052;-79
2022/06/12 15:36:14;;;;;;;10.32;7.25;;;;;;;;;;5059346;28;20044;-79
2022/06/12 15:38:59;;;;;;;11.18;9.65;;;;;;;;;;5052880;28;20041;-80
2022/06/12 15:41:45;;;;;;;141.93;113.07;;;;;;;;;;5063791;28;20049;-80
2022/06/12 15:44:31;;;;;;;31.25;24.63;;;;;;;;;;5056448;28;20049;-80
2022/06/12 15:47:17;;;;;;;11.30;9.02;;;;;;;;;;5062474;28;20037;-79
2022/06/12 15:50:03;;;;;;;11.10;8.18;;;;;;;;;;5056596;28;20386;-78
2022/06/12 15:52:50;;;;;;;11.07;6.85;;;;;;;;;;5062992;28;20041;-80
2022/06/12 15:55:35;;;;;;;9.18;6.20;;;;;;;;;;5056751;28;20056;-81
2022/06/12 15:58:22;;;;;;;6.88;5.80;;;;;;;;;;5055408;28;20049;-78
2022/06/12 16:01:20;;;;;;;7.15;5.10;;;;;;;;;;5056074;28;20497;-79
2022/06/12 16:04:10;;;;;;;9.25;5.32;;;;;;;;;;5062801;28;20045;-78
2022/06/12 16:06:55;;;;;;;7.38;5.93;;;;;;;;;;5063399;28;20402;-81
2022/06/12 16:09:40;;;;;;;8.30;5.50;;;;;;;;;;5056783;28;20492;-82
2022/06/12 16:12:29;;;;;;;5.40;4.90;;;;;;;;;;5056543;28;20037;-81
2022/06/12 16:15:18;;;;;;;10.25;5.57;;;;;;;;;;5063696;28;20041;-81
2022/06/12 16:18:06;;;;;;;8.25;6.70;;;;;;;;;;5063109;28;20049;-81
2022/06/12 16:20:51;;;;;;;8.05;6.53;;;;;;;;;;5062727;28;20394;-81
2022/06/12 16:23:36;;;;;;;8.60;6.82;;;;;;;;;;5041633;28;20053;-78
2022/06/12 16:26:22;;;;;;;9.32;6.40;;;;;;;;;;5048165;28;20053;-81
2022/06/12 16:29:08;;;;;;;7.70;6.05;;;;;;;;;;5056881;28;20045;-81
2022/06/12 16:31:54;;;;;;;7.32;6.18;;;;;;;;;;5063243;28;20049;-80
2022/06/12 16:34:39;;;;;;;7.47;6.35;;;;;;;;;;5062928;28;20402;-80
2022/06/12 16:37:26;;;;;;;8.73;5.55;;;;;;;;;;5063049;28;20049;-83
2022/06/12 16:40:16;;;;;;;9.10;6.30;;;;;;;;;;5056179;28;20052;-79
2022/06/12 16:43:02;;;;;;;6.68;5.95;;;;;;;;;;5064054;28;20057;-81
2022/06/12 16:45:49;;;;;;;7.10;6.15;;;;;;;;;;5056417;28;20406;-80
2022/06/12 16:48:36;;;;;;;6.78;6.07;;;;;;;;;;5062798;28;20061;-79
2022/06/12 16:51:21;;;;;;;9.00;6.88;;;;;;;;;;5046437;28;20498;-80
2022/06/12 16:54:06;;;;;;;9.88;7.30;;;;;;;;;;5055267;28;20052;-79
2022/06/12 16:56:52;;;;;;;9.88;7.00;;;;;;;;;;5056285;28;20037;-79
2022/06/12 16:59:40;;;;;;;11.32;8.60;;;;;;;;;;5062327;28;20041;-82
2022/06/12 17:02:28;;;;;;;8.68;7.78;;;;;;;;;;5061934;28;20048;-79
2022/06/12 17:05:15;;;;;;;9.63;8.20;;;;;;;;;;5055397;28;20037;-80
2022/06/12 17:08:01;;;;;;;9.45;8.18;;;;;;;;;;5061943;28;20045;-77
2022/06/12 17:10:47;;;;;;;7.63;6.75;;;;;;;;;;5064250;22;20049;-81
2022/06/12 17:13:33;;;;;;;8.60;7.70;;;;;;;;;;5055056;28;20045;-77
2022/06/12 17:16:18;;;;;;;10.90;7.82;;;;;;;;;;5055009;28;20041;-80
2022/06/12 17:22:08;;;;;;;11.30;8.52;;;;;;;;;;5055150;28;20397;-78
2022/06/12 17:24:55;;;;;;;18.10;9.20;;;;;;;;;;5055329;28;20045;-77
2022/06/12 17:27:40;;;;;;;15.57;13.38;;;;;;;;;;5055336;28;20394;-78
2022/06/12 17:30:25;;;;;;;18.15;15.65;;;;;;;;;;5061478;28;20045;-80
2022/06/12 17:33:13;;;;;;;18.02;13.05;;;;;;;;;;5054820;28;20041;-77
2022/06/12 17:36:00;;;;;;;12.90;11.20;;;;;;;;;;5055140;28;20049;-79